Time;durP1;ratioP1;P1;durP2;ratioP2;P2;SDS_P1;SDS_P2;PMS_P1;PMS_P2;Temp;Humidity;BMP_temperature;BMP_pressure;BME280_temperature;BME280_humidity;BME280_pressure;Samples;Min_cycle;Max_cycle;Signal;HPM_P1;HPM_P2
2021/03/05 00:00:20;;;;;;;13.20;6.88;;;4.90;95.30;;;;;;5049924;28;20112;-71
2021/03/05 00:02:47;;;;;;;15.65;7.18;;;4.90;95.30;;;;;;5049822;28;20443;-71
2021/03/05 00:05:13;;;;;;;14.82;7.45;;;4.90;95.30;;;;;;5051435;28;20061;-71
2021/03/05 00:07:38;;;;;;;14.05;7.22;;;5.00;95.30;;;;;;5048252;28;20071;-72
2021/03/05 00:10:09;;;;;;;14.70;7.60;;;4.90;95.30;;;;;;5031508;28;20100;-71
2021/03/05 00:12:35;;;;;;;15.60;7.68;;;4.90;95.40;;;;;;5044210;28;20511;-71
2021/03/05 00:15:01;;;;;;;13.15;7.32;;;4.80;95.60;;;;;;5050992;28;20070;-71
2021/03/05 00:17:27;;;;;;;13.73;7.32;;;4.80;95.60;;;;;;5048470;28;20029;-71
2021/03/05 00:19:53;;;;;;;17.95;8.13;;;4.80;95.50;;;;;;5051516;28;20035;-72
2021/03/05 00:22:18;;;;;;;13.27;7.90;;;4.80;95.50;;;;;;5046924;28;20021;-71
2021/03/05 00:24:44;;;;;;;14.65;8.27;;;4.80;95.60;;;;;;5032666;28;20039;-71
2021/03/05 00:27:09;;;;;;;20.33;9.30;;;4.70;95.60;;;;;;5043453;28;20044;-71
2021/03/05 00:29:35;;;;;;;15.18;7.45;;;4.70;95.60;;;;;;5055149;28;20382;-72
2021/03/05 00:32:00;;;;;;;18.25;7.93;;;4.80;95.40;;;;;;5053899;28;20516;-71
2021/03/05 00:34:26;;;;;;;13.90;6.45;;;4.80;95.40;;;;;;5055284;28;20036;-72
2021/03/05 00:36:51;;;;;;;19.35;8.68;;;4.80;95.40;;;;;;5050517;28;20382;-72
2021/03/05 00:39:17;;;;;;;17.15;8.52;;;4.80;95.40;;;;;;5035517;28;20112;-71
2021/03/05 00:41:42;;;;;;;16.63;8.50;;;4.80;95.30;;;;;;5049822;28;20377;-71
2021/03/05 00:44:08;;;;;;;16.42;8.63;;;4.80;95.40;;;;;;5054394;28;20469;-70
2021/03/05 00:46:34;;;;;;;22.00;9.88;;;4.70;95.40;;;;;;5054416;28;20044;-71
2021/03/05 00:48:59;;;;;;;17.85;9.00;;;4.70;95.40;;;;;;5054998;28;20091;-71
2021/03/05 00:51:25;;;;;;;18.17;10.05;;;4.60;95.50;;;;;;5060798;28;20096;-70
2021/03/05 00:53:52;;;;;;;21.92;8.95;;;4.70;95.50;;;;;;5046777;28;20014;-70
2021/03/05 00:56:18;;;;;;;16.65;8.57;;;4.70;95.40;;;;;;5049864;28;20101;-71
2021/03/05 00:58:43;;;;;;;20.10;10.30;;;4.60;95.40;;;;;;5054466;28;20057;-70
2021/03/05 01:01:09;;;;;;;18.52;9.48;;;4.70;95.50;;;;;;5052989;28;20171;-71
2021/03/05 01:03:35;;;;;;;22.23;9.25;;;4.60;95.50;;;;;;5054542;28;20013;-71
2021/03/05 01:06:01;;;;;;;21.30;10.00;;;4.60;95.40;;;;;;5056056;28;20024;-72
2021/03/05 01:08:26;;;;;;;16.55;9.38;;;4.60;95.40;;;;;;5054185;28;20036;-71
2021/03/05 01:10:52;;;;;;;20.25;9.65;;;4.60;95.30;;;;;;5052964;28;20021;-71
2021/03/05 01:13:17;;;;;;;19.10;9.63;;;4.60;95.00;;;;;;5071407;28;20032;-71
2021/03/05 01:15:43;;;;;;;23.08;9.95;;;4.50;95.20;;;;;;5073435;28;20096;-71
2021/03/05 01:18:08;;;;;;;20.67;10.00;;;4.40;95.30;;;;;;5065597;28;20075;-71
2021/03/05 01:20:35;;;;;;;25.15;10.65;;;4.40;95.30;;;;;;5074110;28;20032;-71
2021/03/05 01:23:00;;;;;;;20.35;9.57;;;4.30;95.30;;;;;;5053949;28;20519;-71
2021/03/05 01:25:29;;;;;;;19.48;8.73;;;4.30;95.00;;;;;;5056384;28;20056;-71
2021/03/05 01:27:54;;;;;;;17.85;8.93;;;4.20;95.20;;;;;;5055278;28;20049;-71
2021/03/05 01:30:20;;;;;;;22.67;9.88;;;4.30;95.00;;;;;;5054286;28;20021;-71
2021/03/05 01:32:46;;;;;;;22.50;10.30;;;4.30;95.00;;;;;;5066838;28;20036;-71
2021/03/05 01:35:15;;;;;;;21.17;9.90;;;4.20;95.00;;;;;;5042040;28;20067;-71
2021/03/05 01:37:41;;;;;;;26.70;11.00;;;4.20;94.90;;;;;;5048958;28;20374;-71
2021/03/05 01:40:11;;;;;;;22.05;10.23;;;4.20;94.90;;;;;;5053067;28;20119;-71
2021/03/05 01:42:36;;;;;;;22.58;10.73;;;4.10;94.90;;;;;;5065247;28;20060;-71
2021/03/05 01:45:05;;;;;;;26.10;10.02;;;4.10;94.90;;;;;;5058417;28;20063;-71
2021/03/05 01:47:30;;;;;;;33.42;11.68;;;4.10;95.00;;;;;;5052474;28;20037;-71
2021/03/05 01:49:56;;;;;;;27.05;10.73;;;4.00;95.10;;;;;;5053033;28;20524;-71
2021/03/05 01:52:21;;;;;;;30.30;9.60;;;4.00;95.10;;;;;;5062424;28;20111;-71
2021/03/05 01:54:47;;;;;;;24.75;9.85;;;4.00;95.20;;;;;;5065198;28;20466;-71
2021/03/05 01:57:12;;;;;;;22.90;9.20;;;4.00;95.10;;;;;;5052820;28;20029;-71
2021/03/05 01:59:38;;;;;;;27.48;10.88;;;4.00;95.10;;;;;;5052830;28;20032;-71
2021/03/05 02:02:10;;;;;;;26.75;11.13;;;3.90;95.00;;;;;;5060534;28;20078;-71
2021/03/05 02:04:36;;;;;;;22.90;9.80;;;3.90;95.10;;;;;;5064901;28;20033;-71
2021/03/05 02:07:06;;;;;;;34.15;11.88;;;3.90;95.10;;;;;;5055624;28;20033;-71
2021/03/05 02:09:32;;;;;;;36.22;10.95;;;3.80;95.20;;;;;;5064136;28;20025;-70
2021/03/05 02:11:59;;;;;;;29.58;12.05;;;3.80;95.50;;;;;;5071713;28;20385;-70
2021/03/05 02:14:25;;;;;;;30.15;12.18;;;3.70;95.50;;;;;;5066070;28;20032;-70
2021/03/05 02:17:17;;;;;;;33.58;11.50;;;3.60;95.50;;;;;;5051976;28;20512;-70
2021/03/05 02:20:03;;;;;;;30.88;11.80;;;3.60;95.80;;;;;;5044668;28;20025;-70
2021/03/05 02:22:49;;;;;;;34.35;11.05;;;3.50;95.70;;;;;;5053023;28;20029;-71
2021/03/05 02:25:57;;;;;;;35.92;12.40;;;3.50;95.60;;;;;;5051157;28;20025;-71
2021/03/05 02:28:47;;;;;;;37.30;11.93;;;3.50;95.50;;;;;;5051611;28;20040;-71
2021/03/05 02:31:21;;;;;;;28.50;10.20;;;3.50;95.60;;;;;;5050760;28;20037;-71
2021/03/05 02:33:58;;;;;;;30.33;10.02;;;3.60;95.60;;;;;;5050931;28;20098;-71
2021/03/05 02:36:30;;;;;;;32.00;10.40;;;3.60;95.50;;;;;;5051580;28;20482;-71
2021/03/05 02:39:07;;;;;;;39.00;11.93;;;3.50;95.50;;;;;;5052477;28;20108;-70
2021/03/05 02:41:36;;;;;;;28.90;10.23;;;3.50;95.50;;;;;;5065841;28;20028;-70
2021/03/05 02:44:04;;;;;;;33.50;10.48;;;3.50;95.60;;;;;;5062164;28;20033;-71
2021/03/05 02:46:31;;;;;;;32.25;10.27;;;3.40;95.60;;;;;;5051245;28;20239;-73
2021/03/05 02:49:00;;;;;;;34.05;9.07;;;3.40;95.60;;;;;;5042529;28;20040;-70
2021/03/05 02:51:30;;;;;;;35.55;11.45;;;3.30;95.70;;;;;;5058076;28;20033;-72
2021/03/05 02:53:56;;;;;;;29.00;11.10;;;3.30;95.90;;;;;;5059761;28;20029;-71
2021/03/05 02:56:23;;;;;;;27.92;10.00;;;3.20;95.90;;;;;;5051337;28;20527;-72
2021/03/05 02:58:52;;;;;;;32.83;11.18;;;3.20;95.70;;;;;;5047371;28;20496;-71
2021/03/05 03:01:19;;;;;;;27.15;10.30;;;3.20;95.90;;;;;;5056058;28;20087;-70
2021/03/05 03:03:44;;;;;;;26.38;8.80;;;3.10;95.80;;;;;;5041763;28;20486;-70
2021/03/05 03:06:12;;;;;;;30.67;8.85;;;3.10;95.90;;;;;;5056724;28;20045;-72
2021/03/05 03:08:39;;;;;;;33.47;11.40;;;3.10;95.80;;;;;;5060297;28;20041;-71
2021/03/05 03:11:05;;;;;;;30.85;11.02;;;3.10;95.80;;;;;;5061411;28;20473;-72
2021/03/05 03:13:35;;;;;;;31.80;10.23;;;3.10;95.80;;;;;;5061720;28;20259;-72
2021/03/05 03:16:02;;;;;;;30.80;9.20;;;3.00;95.90;;;;;;5050843;28;20025;-72
2021/03/05 03:18:29;;;;;;;32.10;11.15;;;3.00;95.90;;;;;;5057347;28;20029;-70
2021/03/05 03:20:59;;;;;;;32.03;10.57;;;2.90;96.00;;;;;;5069082;28;20028;-70
2021/03/05 03:23:24;;;;;;;27.08;9.93;;;2.90;95.90;;;;;;5060189;28;20040;-69
2021/03/05 03:25:51;;;;;;;27.33;9.15;;;2.90;96.10;;;;;;5066499;28;20028;-69
2021/03/05 03:28:16;;;;;;;30.95;9.98;;;2.90;96.00;;;;;;5074846;28;20079;-71
2021/03/05 03:30:42;;;;;;;24.17;8.70;;;2.90;95.90;;;;;;5045534;28;20060;-70
2021/03/05 03:33:08;;;;;;;22.00;7.90;;;2.90;96.00;;;;;;5051384;28;20470;-71
2021/03/05 03:35:34;;;;;;;26.90;7.82;;;2.80;95.90;;;;;;5039240;28;20456;-70
2021/03/05 03:38:01;;;;;;;28.40;9.48;;;2.80;96.10;;;;;;5049516;28;20473;-71
2021/03/05 03:40:26;;;;;;;25.40;9.18;;;2.70;96.30;;;;;;5055729;28;20039;-71
2021/03/05 03:42:52;;;;;;;24.38;9.05;;;2.70;96.30;;;;;;5062768;28;20029;-71
2021/03/05 03:45:21;;;;;;;22.98;8.32;;;2.70;96.30;;;;;;5051230;28;20033;-72
2021/03/05 03:47:48;;;;;;;23.77;9.13;;;2.60;96.40;;;;;;5043535;28;20565;-70
2021/03/05 03:50:39;;;;;;;19.00;7.82;;;2.60;96.50;;;;;;5036667;28;20035;-71
2021/03/05 03:53:19;;;;;;;27.48;9.20;;;2.60;96.60;;;;;;5050366;28;20040;-70
2021/03/05 03:55:48;;;;;;;24.52;10.23;;;2.50;96.70;;;;;;5057700;28;20040;-71
2021/03/05 03:58:15;;;;;;;19.98;7.78;;;2.50;96.50;;;;;;5059372;28;20037;-70
2021/03/05 04:00:42;;;;;;;21.80;7.60;;;2.50;96.60;;;;;;5054232;28;20032;-71
2021/03/05 04:03:08;;;;;;;21.65;7.45;;;2.50;96.70;;;;;;5054045;28;20030;-71
2021/03/05 04:05:37;;;;;;;21.50;8.05;;;2.50;96.50;;;;;;5054091;28;20127;-71
2021/03/05 04:08:04;;;;;;;25.42;7.93;;;2.50;96.50;;;;;;5054932;28;20060;-72
2021/03/05 04:10:30;;;;;;;23.02;7.00;;;2.50;96.60;;;;;;5054157;28;20037;-71
2021/03/05 04:12:59;;;;;;;24.63;7.55;;;2.50;96.50;;;;;;5057800;28;20032;-71
2021/03/05 04:15:25;;;;;;;19.92;7.13;;;2.50;96.60;;;;;;5041449;28;20032;-71
2021/03/05 04:17:51;;;;;;;14.50;6.35;;;2.40;96.40;;;;;;5042726;28;20022;-71
2021/03/05 04:20:19;;;;;;;18.30;6.55;;;2.50;96.30;;;;;;5044421;28;20166;-72
2021/03/05 04:22:45;;;;;;;17.10;6.90;;;2.50;96.20;;;;;;5059912;28;20114;-71
2021/03/05 04:25:16;;;;;;;21.67;6.43;;;2.50;96.20;;;;;;5054536;28;20075;-70
2021/03/05 04:27:41;;;;;;;15.88;6.30;;;2.50;96.10;;;;;;5053558;28;20047;-71
2021/03/05 04:30:08;;;;;;;19.75;6.43;;;2.50;96.10;;;;;;5054821;28;20029;-71
2021/03/05 04:32:33;;;;;;;18.48;6.85;;;2.50;96.10;;;;;;5053021;28;20032;-71
2021/03/05 04:34:59;;;;;;;19.05;6.32;;;2.50;96.00;;;;;;5055255;28;20025;-71
2021/03/05 04:37:25;;;;;;;16.90;6.28;;;2.60;96.00;;;;;;5064324;28;20122;-71
2021/03/05 04:39:50;;;;;;;17.63;6.38;;;2.50;96.00;;;;;;5054348;28;20044;-71
2021/03/05 04:42:16;;;;;;;22.45;6.47;;;2.50;96.00;;;;;;5069759;28;20063;-71
2021/03/05 04:44:41;;;;;;;28.42;7.30;;;2.50;96.00;;;;;;5035316;28;20527;-71
2021/03/05 04:47:07;;;;;;;18.20;6.30;;;2.50;96.20;;;;;;5054273;28;20045;-71
2021/03/05 04:49:32;;;;;;;17.27;7.05;;;2.40;96.10;;;;;;5053032;28;20036;-70
2021/03/05 04:51:58;;;;;;;21.55;6.40;;;2.40;96.10;;;;;;5063230;28;20028;-71
2021/03/05 04:54:23;;;;;;;14.65;6.28;;;2.40;96.20;;;;;;5054958;28;20028;-71
2021/03/05 04:56:49;;;;;;;16.65;6.53;;;2.40;96.20;;;;;;5059137;28;20052;-71
2021/03/05 04:59:14;;;;;;;18.98;6.78;;;2.30;96.20;;;;;;5075137;28;20646;-71
2021/03/05 05:01:40;;;;;;;21.27;6.57;;;2.40;96.40;;;;;;5054332;28;20037;-70
2021/03/05 05:04:05;;;;;;;18.17;7.40;;;2.40;96.40;;;;;;5034709;28;20022;-71
2021/03/05 05:06:31;;;;;;;25.20;8.10;;;2.30;96.40;;;;;;5048955;28;20033;-71
2021/03/05 05:08:57;;;;;;;18.65;7.00;;;2.20;96.30;;;;;;5054682;28;20381;-70
2021/03/05 05:11:22;;;;;;;16.73;6.05;;;2.20;96.60;;;;;;5051038;28;20021;-71
2021/03/05 05:13:48;;;;;;;21.30;6.03;;;2.30;96.40;;;;;;5034662;28;20029;-71
2021/03/05 05:16:13;;;;;;;15.23;6.07;;;2.20;96.40;;;;;;5046688;28;20437;-71
2021/03/05 05:18:39;;;;;;;16.48;6.38;;;2.20;96.40;;;;;;5056759;28;20036;-71
2021/03/05 05:21:05;;;;;;;18.23;6.22;;;2.20;96.40;;;;;;5064808;28;20029;-70
2021/03/05 05:23:30;;;;;;;18.30;6.95;;;2.20;96.40;;;;;;5052721;28;20091;-71
2021/03/05 05:25:56;;;;;;;22.88;8.50;;;2.20;96.40;;;;;;5051741;28;20021;-71
2021/03/05 05:28:21;;;;;;;18.90;8.80;;;2.10;96.30;;;;;;5053855;28;20082;-71
2021/03/05 05:30:47;;;;;;;23.33;10.05;;;2.10;96.30;;;;;;5052371;28;20129;-70
2021/03/05 05:33:12;;;;;;;19.20;9.93;;;2.10;96.40;;;;;;5053727;28;20023;-70
2021/03/05 05:35:38;;;;;;;23.70;8.98;;;2.10;96.30;;;;;;5054992;28;20492;-70
2021/03/05 05:38:03;;;;;;;20.10;9.07;;;2.00;96.30;;;;;;5054006;28;20108;-71
2021/03/05 05:40:29;;;;;;;20.33;8.75;;;2.00;96.30;;;;;;5049664;28;20037;-72
2021/03/05 05:42:55;;;;;;;20.40;10.25;;;2.00;96.30;;;;;;5033979;28;20052;-71
2021/03/05 05:45:21;;;;;;;15.18;7.18;;;2.00;96.40;;;;;;5048604;28;20025;-72
2021/03/05 05:47:46;;;;;;;19.50;6.75;;;2.10;96.40;;;;;;5073603;28;20143;-72
2021/03/05 05:50:12;;;;;;;9.85;5.30;;;2.10;96.40;;;;;;5067091;28;20102;-72
2021/03/05 05:52:40;;;;;;;17.13;6.63;;;2.10;96.30;;;;;;5062589;28;20108;-72
2021/03/05 05:55:07;;;;;;;13.35;6.10;;;2.10;96.30;;;;;;5067687;28;20029;-72
2021/03/05 05:57:36;;;;;;;12.20;5.65;;;2.10;96.30;;;;;;5054913;28;20041;-71
2021/03/05 06:00:04;;;;;;;10.15;4.78;;;2.10;96.40;;;;;;5054449;28;20025;-72
2021/03/05 06:02:30;;;;;;;13.65;5.40;;;2.10;96.30;;;;;;5081144;28;20033;-71
2021/03/05 06:04:56;;;;;;;10.38;5.03;;;2.10;96.30;;;;;;5083305;28;20584;-71
2021/03/05 06:07:24;;;;;;;11.10;6.32;;;2.20;96.20;;;;;;5059519;28;20119;-72
2021/03/05 06:09:51;;;;;;;14.00;5.85;;;2.10;96.20;;;;;;5051304;28;20033;-71
2021/03/05 06:12:17;;;;;;;10.88;5.78;;;2.20;96.20;;;;;;5073579;28;20097;-71
2021/03/05 06:14:44;;;;;;;9.75;4.95;;;2.20;96.20;;;;;;5048033;28;20105;-71
2021/03/05 06:17:10;;;;;;;11.00;5.43;;;2.20;96.30;;;;;;5033555;28;20378;-72
2021/03/05 06:19:36;;;;;;;11.70;5.47;;;2.30;96.30;;;;;;5033573;28;20025;-71
2021/03/05 06:22:01;;;;;;;8.75;5.00;;;2.30;96.20;;;;;;5052123;28;20021;-71
2021/03/05 06:24:28;;;;;;;10.77;4.53;;;2.30;96.20;;;;;;5052305;28;20086;-71
2021/03/05 06:27:01;;;;;;;8.30;4.15;;;2.30;96.10;;;;;;5068800;28;20112;-72
2021/03/05 06:29:48;;;;;;;10.90;4.55;;;2.40;96.10;;;;;;5069384;28;20390;-72
2021/03/05 06:32:15;;;;;;;8.48;4.43;;;2.40;96.00;;;;;;5067818;28;20031;-72
2021/03/05 06:34:49;;;;;;;11.02;5.03;;;2.50;96.00;;;;;;5051705;28;20562;-72
2021/03/05 06:37:16;;;;;;;9.23;4.10;;;2.50;96.00;;;;;;5053158;28;20028;-71
2021/03/05 06:39:43;;;;;;;13.70;5.13;;;2.60;95.90;;;;;;5050770;28;20440;-71
2021/03/05 06:42:10;;;;;;;11.07;4.60;;;2.60;95.90;;;;;;5052831;28;20025;-71
2021/03/05 06:44:42;;;;;;;8.35;4.43;;;2.70;95.90;;;;;;5050349;28;20040;-70
2021/03/05 06:47:18;;;;;;;7.72;4.35;;;2.80;95.90;;;;;;5052436;28;20040;-71
2021/03/05 06:49:45;;;;;;;8.55;4.55;;;2.80;95.80;;;;;;5050836;28;20477;-70
2021/03/05 06:52:12;;;;;;;9.85;4.93;;;2.90;95.70;;;;;;5052481;28;20064;-70
2021/03/05 06:54:40;;;;;;;7.03;4.60;;;3.00;95.70;;;;;;5055470;28;20052;-71
2021/03/05 06:57:06;;;;;;;8.13;4.15;;;3.00;95.60;;;;;;5071587;28;20041;-69
2021/03/05 06:59:43;;;;;;;7.00;4.28;;;3.10;95.50;;;;;;5061683;28;20175;-68
2021/03/05 07:02:14;;;;;;;8.60;4.45;;;3.10;95.20;;;;;;5051140;28;20513;-69
2021/03/05 07:04:42;;;;;;;9.75;4.45;;;3.10;95.20;;;;;;5032280;28;20138;-69
2021/03/05 07:07:10;;;;;;;6.95;4.38;;;3.20;95.10;;;;;;5059891;28;20421;-70
2021/03/05 07:09:44;;;;;;;7.82;4.72;;;3.20;95.00;;;;;;5051938;28;20013;-71
2021/03/05 07:12:11;;;;;;;7.40;4.28;;;3.30;95.00;;;;;;5038205;28;20059;-71
2021/03/05 07:14:39;;;;;;;6.28;3.75;;;3.40;95.00;;;;;;5041520;28;20033;-70
2021/03/05 07:17:06;;;;;;;8.00;3.80;;;3.40;94.90;;;;;;5061768;28;20067;-68
2021/03/05 07:19:33;;;;;;;10.20;3.92;;;3.50;94.80;;;;;;5051497;28;20024;-71
2021/03/05 07:22:00;;;;;;;8.07;4.13;;;3.60;94.80;;;;;;5049228;28;20040;-73
2021/03/05 07:24:27;;;;;;;8.25;4.40;;;3.60;94.70;;;;;;5050268;28;20355;-71
2021/03/05 07:27:02;;;;;;;10.68;4.63;;;3.70;94.70;;;;;;5049000;28;20036;-69
2021/03/05 07:29:32;;;;;;;8.95;4.28;;;3.70;94.60;;;;;;5051659;28;20031;-70
2021/03/05 07:32:19;;;;;;;8.82;4.28;;;3.70;94.10;;;;;;5052994;28;20499;-69
2021/03/05 07:34:59;;;;;;;8.20;3.88;;;3.70;93.90;;;;;;5049652;28;20120;-70
2021/03/05 07:37:30;;;;;;;7.55;4.00;;;3.70;93.80;;;;;;5048827;28;20390;-69
2021/03/05 07:40:01;;;;;;;8.02;3.88;;;3.80;93.70;;;;;;5053229;28;20044;-69
2021/03/05 07:42:27;;;;;;;6.65;3.85;;;3.70;93.60;;;;;;5050909;28;20044;-69
2021/03/05 07:44:55;;;;;;;8.82;4.20;;;3.70;93.60;;;;;;5041804;28;20041;-69
2021/03/05 07:47:22;;;;;;;7.95;3.50;;;3.80;93.70;;;;;;5052161;28;20049;-69
2021/03/05 07:49:48;;;;;;;6.32;3.58;;;3.80;93.70;;;;;;5036025;28;20379;-69
2021/03/05 07:52:14;;;;;;;5.35;3.22;;;3.80;93.60;;;;;;5051751;28;20075;-69
2021/03/05 07:54:39;;;;;;;7.95;3.63;;;3.90;93.50;;;;;;5048740;28;20025;-69
2021/03/05 07:57:26;;;;;;;4.57;3.20;;;3.90;93.40;;;;;;5066479;28;20033;-70
2021/03/05 07:59:52;;;;;;;8.45;4.25;;;3.90;93.30;;;;;;5056643;28;20033;-70
2021/03/05 08:02:22;;;;;;;6.28;4.13;;;3.90;93.20;;;;;;5050988;28;20029;-69
2021/03/05 08:04:50;;;;;;;5.75;2.97;;;3.90;93.10;;;;;;5050247;28;20029;-69
2021/03/05 08:07:20;;;;;;;10.68;3.80;;;4.00;93.00;;;;;;5058396;28;20036;-70
2021/03/05 08:09:46;;;;;;;6.47;3.72;;;4.00;92.80;;;;;;5049694;28;20575;-69
2021/03/05 08:12:45;;;;;;;8.80;4.35;;;4.00;92.80;;;;;;5051342;28;20124;-70
2021/03/05 08:15:11;;;;;;;8.80;4.30;;;4.00;93.00;;;;;;5048340;28;20036;-70
2021/03/05 08:17:44;;;;;;;8.68;4.50;;;4.10;93.20;;;;;;5049738;28;20033;-69
2021/03/05 08:20:19;;;;;;;6.85;3.90;;;4.10;93.20;;;;;;5045647;28;20033;-68
2021/03/05 08:23:01;;;;;;;8.52;4.45;;;4.20;93.20;;;;;;5051400;28;20025;-67
2021/03/05 08:25:29;;;;;;;6.10;3.83;;;4.30;93.10;;;;;;5053541;28;20066;-67
2021/03/05 08:28:02;;;;;;;7.55;4.10;;;4.40;93.20;;;;;;5054963;28;20037;-68
2021/03/05 08:30:33;;;;;;;9.93;4.13;;;4.50;93.20;;;;;;5054154;28;20036;-69
2021/03/05 08:33:24;;;;;;;7.35;3.47;;;4.60;93.00;;;;;;5070949;28;20385;-69
2021/03/05 08:35:50;;;;;;;8.73;3.92;;;4.70;92.70;;;;;;5049248;28;20108;-69
2021/03/05 08:38:19;;;;;;;6.80;3.35;;;4.70;92.60;;;;;;5052975;28;20109;-69
2021/03/05 08:40:44;;;;;;;8.57;3.60;;;4.80;92.50;;;;;;5060294;28;20028;-69
2021/03/05 08:43:10;;;;;;;5.25;3.13;;;4.90;92.50;;;;;;5071839;28;20542;-69
2021/03/05 08:45:48;;;;;;;7.18;3.42;;;4.90;92.40;;;;;;5052271;28;20037;-68
2021/03/05 08:48:40;;;;;;;4.95;3.08;;;5.00;92.20;;;;;;5044563;28;20045;-69
2021/03/05 08:51:14;;;;;;;6.15;3.50;;;5.10;92.00;;;;;;5050249;28;20098;-69
2021/03/05 08:53:59;;;;;;;5.82;3.00;;;5.10;91.40;;;;;;5051014;28;20039;-69
2021/03/05 08:56:27;;;;;;;5.93;2.85;;;5.10;91.60;;;;;;5054066;28;20040;-70
2021/03/05 08:59:03;;;;;;;5.50;3.20;;;5.20;91.70;;;;;;5052337;28;20033;-69
2021/03/05 09:01:32;;;;;;;5.57;3.42;;;5.20;91.70;;;;;;5069630;28;20040;-69
2021/03/05 09:04:19;;;;;;;6.05;3.38;;;5.30;91.60;;;;;;5066835;28;20485;-69
2021/03/05 09:06:58;;;;;;;6.57;3.97;;;5.40;91.60;;;;;;5054182;28;20037;-69
2021/03/05 09:09:28;;;;;;;9.38;3.92;;;5.40;90.90;;;;;;5052883;28;20021;-70
2021/03/05 09:12:13;;;;;;;11.00;3.83;;;5.50;91.10;;;;;;5054589;28;20107;-68
2021/03/05 09:14:39;;;;;;;9.75;4.00;;;5.60;91.30;;;;;;5050168;28;20151;-69
2021/03/05 09:17:07;;;;;;;9.57;4.47;;;5.70;91.20;;;;;;5054134;28;20029;-70
2021/03/05 09:19:39;;;;;;;8.27;5.00;;;5.70;91.10;;;;;;5053908;28;20377;-69
2021/03/05 09:22:08;;;;;;;9.02;5.72;;;5.80;90.40;;;;;;5053879;28;20104;-69
2021/03/05 09:24:59;;;;;;;10.13;5.50;;;5.90;90.60;;;;;;5053597;28;20672;-68
2021/03/05 09:27:32;;;;;;;8.10;4.80;;;5.90;90.60;;;;;;5050558;28;20128;-69
2021/03/05 09:29:59;;;;;;;7.28;3.88;;;5.90;90.00;;;;;;5053059;28;20497;-68
2021/03/05 09:32:25;;;;;;;8.13;4.47;;;5.90;90.10;;;;;;5039084;28;20076;-69
2021/03/05 09:34:54;;;;;;;8.00;5.28;;;6.00;89.90;;;;;;5047415;28;20090;-69
2021/03/05 09:37:24;;;;;;;9.02;4.95;;;6.00;88.40;;;;;;5053421;28;20033;-69
2021/03/05 09:39:52;;;;;;;8.55;4.38;;;6.00;88.10;;;;;;5052805;28;20033;-68
2021/03/05 09:42:17;;;;;;;9.20;4.70;;;6.00;86.20;;;;;;5053784;28;20029;-68
2021/03/05 09:44:46;;;;;;;7.53;4.20;;;5.90;84.40;;;;;;5050136;28;20477;-69
2021/03/05 09:47:12;;;;;;;9.85;4.53;;;5.90;86.00;;;;;;5046785;28;20060;-68
2021/03/05 09:49:37;;;;;;;10.35;5.47;;;5.90;85.70;;;;;;5047517;28;20079;-69
2021/03/05 09:52:04;;;;;;;6.70;4.07;;;5.90;86.40;;;;;;5052129;28;20029;-68
2021/03/05 09:54:37;;;;;;;6.50;3.72;;;5.90;85.90;;;;;;5053290;28;20112;-70
2021/03/05 09:57:03;;;;;;;10.90;4.18;;;5.90;84.90;;;;;;5051371;28;20112;-70
2021/03/05 09:59:46;;;;;;;9.82;3.83;;;5.90;83.60;;;;;;5052881;28;20056;-69
2021/03/05 10:02:18;;;;;;;7.93;3.70;;;5.90;81.10;;;;;;5050590;28;20112;-70
2021/03/05 10:04:45;;;;;;;6.70;3.10;;;5.80;82.80;;;;;;5052046;28;20033;-69
2021/03/05 10:07:11;;;;;;;7.55;3.85;;;5.80;83.10;;;;;;5051559;28;20032;-70
2021/03/05 10:09:36;;;;;;;6.28;3.45;;;5.70;82.20;;;;;;5047721;28;20219;-69
2021/03/05 10:12:02;;;;;;;7.18;3.63;;;5.80;83.10;;;;;;5044870;28;20108;-69
2021/03/05 10:14:32;;;;;;;5.13;3.03;;;5.90;83.20;;;;;;5057453;28;20035;-69
2021/03/05 10:17:13;;;;;;;4.53;2.78;;;5.90;81.90;;;;;;5053394;28;20517;-69
2021/03/05 10:19:43;;;;;;;5.00;2.70;;;5.90;79.50;;;;;;5032658;28;20046;-70
2021/03/05 10:22:10;;;;;;;6.22;2.88;;;5.80;72.90;;;;;;5049465;28;20025;-69
2021/03/05 10:24:36;;;;;;;4.28;2.25;;;5.60;72.80;;;;;;5069014;28;20060;-70
2021/03/05 10:27:10;;;;;;;4.05;2.55;;;5.60;74.50;;;;;;5072220;28;20500;-69
2021/03/05 10:29:38;;;;;;;2.88;1.85;;;5.60;73.00;;;;;;5069031;28;20115;-69
2021/03/05 10:32:25;;;;;;;4.65;1.67;;;5.50;72.00;;;;;;5070381;28;20040;-69
2021/03/05 10:35:04;;;;;;;2.97;1.80;;;5.60;66.50;;;;;;5054089;28;20033;-69
2021/03/05 10:37:29;;;;;;;3.55;1.58;;;5.50;67.10;;;;;;5038608;28;20029;-71
2021/03/05 10:39:55;;;;;;;2.80;1.60;;;5.50;66.60;;;;;;5049188;28;20182;-69
2021/03/05 10:42:24;;;;;;;4.00;1.90;;;5.40;63.40;;;;;;5060922;28;20042;-70
2021/03/05 10:44:50;;;;;;;2.97;1.85;;;5.30;62.20;;;;;;5044766;28;20029;-69
2021/03/05 10:47:18;;;;;;;2.30;1.48;;;5.20;62.60;;;;;;5067032;28;20060;-70
2021/03/05 10:49:44;;;;;;;4.57;1.38;;;5.20;62.50;;;;;;5049543;28;20028;-68
2021/03/05 10:52:12;;;;;;;4.30;2.22;;;5.20;63.60;;;;;;5050726;28;20112;-69
2021/03/05 10:54:39;;;;;;;4.18;1.90;;;5.30;63.90;;;;;;5049363;28;20067;-70
2021/03/05 10:57:04;;;;;;;4.18;1.98;;;5.30;65.20;;;;;;5050481;28;20040;-69
2021/03/05 10:59:30;;;;;;;3.95;1.83;;;5.40;66.70;;;;;;5039435;28;20036;-69
2021/03/05 11:01:56;;;;;;;2.88;1.70;;;5.50;66.80;;;;;;5051122;28;20493;-69
2021/03/05 11:04:24;;;;;;;5.22;2.22;;;5.60;67.20;;;;;;5051665;28;20025;-68
2021/03/05 11:06:50;;;;;;;4.03;2.20;;;5.70;67.10;;;;;;5048540;28;20124;-69
2021/03/05 11:09:19;;;;;;;4.00;2.17;;;5.90;66.90;;;;;;5051211;28;20107;-68
2021/03/05 11:11:46;;;;;;;5.88;2.13;;;5.90;64.10;;;;;;5045217;28;20040;-68
2021/03/05 11:14:12;;;;;;;4.03;1.92;;;5.90;63.40;;;;;;5035071;28;20229;-67
2021/03/05 11:16:38;;;;;;;4.05;2.03;;;5.80;60.80;;;;;;5062135;28;20098;-70
2021/03/05 11:19:04;;;;;;;3.95;2.25;;;5.80;61.70;;;;;;5050064;28;20485;-71
2021/03/05 11:21:30;;;;;;;3.58;2.05;;;5.80;62.70;;;;;;5054388;28;21684;-71
2021/03/05 11:23:56;;;;;;;3.15;1.80;;;5.80;62.40;;;;;;5060296;28;20107;-71
2021/03/05 11:26:23;;;;;;;6.35;1.83;;;5.90;61.90;;;;;;5053603;28;20032;-70
2021/03/05 11:28:49;;;;;;;4.13;1.73;;;6.00;61.70;;;;;;5054215;28;20032;-70
2021/03/05 11:31:14;;;;;;;3.38;1.83;;;6.00;58.90;;;;;;5056218;28;20119;-70
2021/03/05 11:33:43;;;;;;;3.45;2.30;;;6.00;61.30;;;;;;5051018;28;20053;-70
2021/03/05 11:36:09;;;;;;;3.63;1.90;;;6.20;60.40;;;;;;5049627;28;20053;-70
2021/03/05 11:38:34;;;;;;;4.00;2.45;;;6.30;62.10;;;;;;5050378;28;20485;-69
2021/03/05 11:41:00;;;;;;;4.95;2.10;;;6.40;61.70;;;;;;5060411;28;20085;-70
2021/03/05 11:43:26;;;;;;;3.90;2.03;;;6.50;60.00;;;;;;5061917;28;20043;-70
2021/03/05 11:45:51;;;;;;;4.25;2.10;;;6.50;58.30;;;;;;5051324;28;20018;-71
2021/03/05 11:48:17;;;;;;;4.55;2.05;;;6.50;58.70;;;;;;5049493;28;20052;-70
2021/03/05 11:50:42;;;;;;;5.15;2.08;;;6.40;58.50;;;;;;5051120;28;20062;-71
2021/03/05 11:53:08;;;;;;;5.22;2.13;;;6.40;58.10;;;;;;5032594;28;20115;-71
2021/03/05 11:55:34;;;;;;;3.05;1.80;;;6.40;58.50;;;;;;5031310;28;20160;-70
2021/03/05 11:58:00;;;;;;;2.33;1.73;;;6.50;59.70;;;;;;5047213;28;20536;-71
2021/03/05 12:00:26;;;;;;;3.67;1.70;;;6.50;58.40;;;;;;5047314;28;20126;-71
2021/03/05 12:02:52;;;;;;;3.50;1.88;;;6.60;59.90;;;;;;5047344;28;20021;-70
2021/03/05 12:05:17;;;;;;;3.00;1.50;;;6.80;59.60;;;;;;5050155;28;20363;-70
2021/03/05 12:07:43;;;;;;;2.80;1.55;;;6.80;58.30;;;;;;5050805;28;20033;-71
2021/03/05 12:10:09;;;;;;;7.20;3.05;;;6.90;57.00;;;;;;5049055;28;20029;-71
2021/03/05 12:12:34;;;;;;;5.43;1.60;;;6.90;55.50;;;;;;5049706;28;20428;-71
2021/03/05 12:15:00;;;;;;;2.50;1.38;;;6.90;56.50;;;;;;5050167;28;20078;-71
2021/03/05 12:17:25;;;;;;;2.25;1.38;;;6.90;55.40;;;;;;5048768;28;20108;-71
2021/03/05 12:19:51;;;;;;;7.05;2.05;;;6.90;53.80;;;;;;5050658;28;20112;-71
2021/03/05 12:22:16;;;;;;;3.08;1.23;;;6.90;54.00;;;;;;5054354;28;20029;-72
2021/03/05 12:24:42;;;;;;;3.25;1.45;;;6.90;54.40;;;;;;5051079;28;20051;-74
2021/03/05 12:27:08;;;;;;;2.90;1.20;;;6.90;52.80;;;;;;5055254;28;20441;-74
2021/03/05 12:29:33;;;;;;;3.97;1.88;;;6.90;52.00;;;;;;5054692;28;20036;-75
2021/03/05 12:31:59;;;;;;;2.38;1.42;;;6.90;53.10;;;;;;5054660;28;20112;-74
2021/03/05 12:34:24;;;;;;;4.10;1.45;;;7.00;50.50;;;;;;5052811;28;20056;-74
2021/03/05 12:36:50;;;;;;;3.42;1.45;;;7.00;51.60;;;;;;5054671;28;20013;-73
2021/03/05 12:39:16;;;;;;;3.30;1.33;;;7.00;51.60;;;;;;5054433;28;20083;-73
2021/03/05 12:41:41;;;;;;;5.65;2.22;;;7.00;50.40;;;;;;5054764;28;20021;-74
2021/03/05 12:44:07;;;;;;;2.47;1.40;;;7.10;50.80;;;;;;5053998;28;20032;-73
2021/03/05 12:46:33;;;;;;;2.25;1.35;;;7.10;50.60;;;;;;5068240;28;20102;-73
2021/03/05 12:48:59;;;;;;;3.17;1.63;;;7.10;50.10;;;;;;5069362;28;20515;-73
2021/03/05 12:51:24;;;;;;;3.92;1.83;;;7.00;49.40;;;;;;5062184;28;20025;-73
2021/03/05 12:53:50;;;;;;;3.10;2.00;;;7.00;49.80;;;;;;5052612;28;20381;-74
2021/03/05 12:56:15;;;;;;;3.15;1.60;;;7.00;50.60;;;;;;5051792;28;20017;-73